createdAt,value
2018-12-24T00:00:17.758Z,62.50
2018-12-24T00:00:48.879Z,62.74
2018-12-24T00:01:19.983Z,62.41
2018-12-24T00:01:51.134Z,63.05
2018-12-24T00:02:22.232Z,62.93
2018-12-24T00:02:53.338Z,63.44
2018-12-24T00:03:24.450Z,62.96
2018-12-24T00:04:36.901Z,63.21
2018-12-24T00:05:08.053Z,63.05
2018-12-24T00:05:39.212Z,62.99
2018-12-24T00:06:10.353Z,62.95
2018-12-24T00:06:41.501Z,63.20
2018-12-24T00:07:12.647Z,63.15
2018-12-24T00:07:43.839Z,63.01
2018-12-24T00:08:15.190Z,62.95
2018-12-24T00:08:46.383Z,62.89
2018-12-24T00:09:17.533Z,62.88
2018-12-24T00:09:48.689Z,63.02
2018-12-24T00:10:19.849Z,63.28
2018-12-24T00:10:51.007Z,63.10
2018-12-24T00:11:22.157Z,63.12
2018-12-24T00:11:53.305Z,63.14
2018-12-24T00:12:24.498Z,63.07
2018-12-24T00:12:55.649Z,63.11
2018-12-24T00:13:26.797Z,62.88
2018-12-24T00:13:57.986Z,62.80
2018-12-24T00:14:29.194Z,62.84
2018-12-24T00:15:00.352Z,62.79
2018-12-24T00:15:31.495Z,62.79
2018-12-24T00:16:02.642Z,62.77
2018-12-24T00:16:33.790Z,62.74
2018-12-24T00:17:05.011Z,62.58
2018-12-24T00:17:36.158Z,62.54
2018-12-24T00:18:07.340Z,62.60
2018-12-24T00:18:38.477Z,62.68
2018-12-24T00:19:09.661Z,62.75
2018-12-24T00:19:40.801Z,62.86
2018-12-24T00:20:11.954Z,62.66
2018-12-24T00:20:43.102Z,62.85
2018-12-24T00:21:14.246Z,62.93
2018-12-24T00:21:45.393Z,62.79
2018-12-24T00:22:16.563Z,62.88
2018-12-24T00:22:47.755Z,63.11
2018-12-24T00:23:18.918Z,63.10
2018-12-24T00:23:50.066Z,63.29
2018-12-24T00:24:21.224Z,63.33
2018-12-24T00:24:52.367Z,63.33
2018-12-24T00:25:23.516Z,63.31
2018-12-24T00:25:54.664Z,63.29
2018-12-24T00:26:25.860Z,63.32
2018-12-24T00:26:57.007Z,63.35
2018-12-24T00:27:28.241Z,63.34
2018-12-24T00:27:59.387Z,63.39
2018-12-24T00:28:30.542Z,63.60
2018-12-24T00:29:01.692Z,63.89
2018-12-24T00:29:32.841Z,64.09
2018-12-24T00:30:04.028Z,63.97
2018-12-24T00:30:35.140Z,63.92
2018-12-24T00:31:06.286Z,63.92
2018-12-24T00:31:37.491Z,63.84
2018-12-24T00:32:08.643Z,63.75
2018-12-24T00:32:39.794Z,63.71
2018-12-24T00:33:10.946Z,63.82
2018-12-24T00:33:42.096Z,63.80
2018-12-24T00:34:15.567Z,63.90
2018-12-24T00:34:46.722Z,64.14
2018-12-24T00:35:17.869Z,64.20
2018-12-24T00:35:49.015Z,64.38
2018-12-24T00:36:20.166Z,64.64
2018-12-24T00:36:51.363Z,64.44
2018-12-24T00:37:22.524Z,64.44
2018-12-24T00:37:53.674Z,64.75
2018-12-24T00:38:24.874Z,64.58
2018-12-24T00:38:56.072Z,64.55
2018-12-24T00:39:27.219Z,64.49
2018-12-24T00:39:58.374Z,64.91
2018-12-24T00:40:29.530Z,64.87
2018-12-24T00:41:00.693Z,64.68
2018-12-24T00:41:31.848Z,64.90
2018-12-24T00:42:02.996Z,64.93
2018-12-24T00:42:34.182Z,64.94
2018-12-24T00:43:05.347Z,64.91
2018-12-24T00:43:36.500Z,64.69
2018-12-24T00:44:07.643Z,64.70
2018-12-24T00:44:38.801Z,64.71
2018-12-24T00:45:09.955Z,64.70
2018-12-24T00:45:41.097Z,64.98
2018-12-24T00:46:12.252Z,64.74
2018-12-24T00:46:43.393Z,64.55
2018-12-24T00:47:14.550Z,64.48
2018-12-24T00:47:45.875Z,64.51
2018-12-24T00:48:17.100Z,64.70
2018-12-24T00:48:48.260Z,64.60
2018-12-24T00:49:19.393Z,64.66
2018-12-24T00:49:50.544Z,64.87
2018-12-24T00:50:21.746Z,64.62
2018-12-24T00:50:52.895Z,64.59
2018-12-24T00:51:24.059Z,64.49
2018-12-24T00:51:55.216Z,64.65
2018-12-24T00:52:26.363Z,64.69
2018-12-24T00:52:57.554Z,64.50
2018-12-24T00:53:28.711Z,64.60
2018-12-24T00:53:59.936Z,64.65
2018-12-24T00:54:31.094Z,64.69
2018-12-24T00:55:02.248Z,64.77
2018-12-24T00:55:33.398Z,64.67
2018-12-24T00:56:04.551Z,64.41
2018-12-24T00:56:35.695Z,64.38
2018-12-24T00:57:06.849Z,64.37
2018-12-24T00:57:38.000Z,64.42
2018-12-24T00:58:09.150Z,64.71
2018-12-24T00:58:40.408Z,64.53
2018-12-24T00:59:11.563Z,64.46
2018-12-24T00:59:42.721Z,64.49
2018-12-24T01:00:13.861Z,64.44
2018-12-24T01:00:45.003Z,64.49
2018-12-24T01:01:16.213Z,64.38
2018-12-24T01:01:48.909Z,64.22
2018-12-24T01:02:20.177Z,64.33
2018-12-24T01:02:51.325Z,64.72
2018-12-24T01:03:22.472Z,64.56
2018-12-24T01:03:53.613Z,64.39
2018-12-24T01:04:24.813Z,64.66
2018-12-24T01:04:56.116Z,64.35
2018-12-24T01:05:27.223Z,64.22
2018-12-24T01:05:58.358Z,64.46
2018-12-24T01:06:29.554Z,64.08
2018-12-24T01:07:00.698Z,64.03
2018-12-24T01:07:31.845Z,64.28
2018-12-24T01:08:02.988Z,64.86
2018-12-24T01:08:34.139Z,64.56
2018-12-24T01:09:05.296Z,64.24
2018-12-24T01:09:36.441Z,64.23
2018-12-24T01:10:07.597Z,64.40
2018-12-24T01:10:38.742Z,64.48
2018-12-24T01:11:09.947Z,64.19
2018-12-24T01:11:41.078Z,63.51
2018-12-24T01:12:12.224Z,62.79
2018-12-24T01:12:43.371Z,62.54
2018-12-24T01:13:14.520Z,62.21
2018-12-24T01:13:45.671Z,61.86
2018-12-24T01:14:16.827Z,62.61
2018-12-24T01:14:47.991Z,62.51
2018-12-24T01:15:19.151Z,62.14
2018-12-24T01:15:50.293Z,62.32
2018-12-24T01:16:21.486Z,62.17
2018-12-24T01:16:52.642Z,61.65
2018-12-24T01:17:23.783Z,61.56
2018-12-24T01:17:54.945Z,62.13
2018-12-24T01:18:26.091Z,61.95
2018-12-24T01:18:57.243Z,61.27
2018-12-24T01:19:28.417Z,61.31
2018-12-24T01:19:59.556Z,61.75
2018-12-24T01:20:30.703Z,61.09
2018-12-24T01:21:01.898Z,61.09
2018-12-24T01:21:33.048Z,61.06
2018-12-24T01:22:04.191Z,61.10
2018-12-24T01:22:35.346Z,61.33
2018-12-24T01:23:06.571Z,62.13
2018-12-24T01:23:37.713Z,62.39
2018-12-24T01:24:08.854Z,62.26
2018-12-24T01:24:40.159Z,61.79
2018-12-24T01:25:11.306Z,61.14
2018-12-24T01:25:42.449Z,60.79
2018-12-24T01:26:13.603Z,60.58
2018-12-24T01:26:44.743Z,60.55
2018-12-24T01:27:15.897Z,60.64
2018-12-24T01:27:47.043Z,60.58
2018-12-24T01:28:18.306Z,60.54
2018-12-24T01:28:49.423Z,60.69
2018-12-24T01:29:20.567Z,60.76
2018-12-24T01:29:51.760Z,60.49
2018-12-24T01:30:22.913Z,60.47
2018-12-24T01:30:54.072Z,60.39
2018-12-24T01:31:25.220Z,60.46
2018-12-24T01:31:56.375Z,60.59
2018-12-24T01:32:27.528Z,60.68
2018-12-24T01:32:58.723Z,60.85
2018-12-24T01:33:29.923Z,60.94
2018-12-24T01:34:01.066Z,60.98
2018-12-24T01:34:32.213Z,61.01
2018-12-24T01:35:03.363Z,61.10
2018-12-24T01:35:34.511Z,61.14
2018-12-24T01:36:05.699Z,61.12
2018-12-24T01:36:36.842Z,61.20
2018-12-24T01:37:07.988Z,61.21
2018-12-24T01:37:39.142Z,61.27
2018-12-24T01:38:10.291Z,61.25
2018-12-24T01:38:41.479Z,61.33
2018-12-24T01:39:12.622Z,61.31
2018-12-24T01:39:43.809Z,61.28
2018-12-24T01:40:14.921Z,61.34
2018-12-24T01:40:46.145Z,61.38
2018-12-24T01:41:17.282Z,61.28
2018-12-24T01:41:48.427Z,61.25
2018-12-24T01:42:19.577Z,61.17
2018-12-24T01:42:50.776Z,60.87
2018-12-24T01:43:21.931Z,60.76
2018-12-24T01:43:53.066Z,60.75
2018-12-24T01:44:24.220Z,60.91
2018-12-24T01:44:57.447Z,61.06
2018-12-24T01:45:28.678Z,61.25
2018-12-24T01:46:02.874Z,60.81
2018-12-24T01:46:34.029Z,61.00
2018-12-24T01:47:05.175Z,61.02
2018-12-24T01:47:36.376Z,60.68
2018-12-24T01:48:07.518Z,60.33
2018-12-24T01:48:38.664Z,59.93
2018-12-24T01:49:09.821Z,59.38
2018-12-24T01:49:40.987Z,59.26
2018-12-24T01:50:12.112Z,59.21
2018-12-24T01:50:43.263Z,59.29
2018-12-24T01:51:14.410Z,59.12
2018-12-24T01:51:45.553Z,59.09
2018-12-24T01:52:16.737Z,58.72
2018-12-24T01:52:47.886Z,59.10
2018-12-24T01:53:19.028Z,58.27
2018-12-24T01:53:50.180Z,57.75
2018-12-24T01:54:21.412Z,58.07
2018-12-24T01:54:52.543Z,57.24
2018-12-24T01:55:23.710Z,57.03
2018-12-24T01:55:54.861Z,57.26
2018-12-24T01:56:26.016Z,57.31
2018-12-24T01:56:57.202Z,56.38
2018-12-24T01:57:28.381Z,56.23
2018-12-24T01:57:59.520Z,56.73
2018-12-24T01:58:30.663Z,56.87
2018-12-24T01:59:01.810Z,56.52
2018-12-24T01:59:32.966Z,56.71
2018-12-24T02:00:04.099Z,56.76
2018-12-24T02:00:35.284Z,56.40
2018-12-24T02:01:06.434Z,56.32
2018-12-24T02:01:37.586Z,56.37
2018-12-24T02:02:08.734Z,56.45
2018-12-24T02:02:39.936Z,56.35
2018-12-24T02:03:11.091Z,56.13
2018-12-24T02:03:42.247Z,56.19
2018-12-24T02:04:13.376Z,56.33
2018-12-24T02:04:44.523Z,56.49
2018-12-24T02:05:15.677Z,56.52
2018-12-24T02:05:46.824Z,56.45
2018-12-24T02:06:17.968Z,56.82
2018-12-24T02:06:49.183Z,57.31
2018-12-24T02:07:20.348Z,57.27
2018-12-24T02:07:51.526Z,57.12
2018-12-24T02:08:22.721Z,57.30
2018-12-24T02:08:53.928Z,57.63
2018-12-24T02:09:25.081Z,58.51
2018-12-24T02:09:56.280Z,58.61
2018-12-24T02:10:27.468Z,58.15
2018-12-24T02:10:58.613Z,57.69
2018-12-24T02:11:29.763Z,57.37
2018-12-24T02:12:00.915Z,57.76
2018-12-24T02:12:32.068Z,57.79
2018-12-24T02:13:03.214Z,57.91
2018-12-24T02:13:34.377Z,57.65
2018-12-24T02:14:05.579Z,57.95
2018-12-24T02:14:36.726Z,57.74
2018-12-24T02:15:07.924Z,57.66
2018-12-24T02:15:39.080Z,57.91
2018-12-24T02:16:10.236Z,57.89
2018-12-24T02:16:41.386Z,57.74
2018-12-24T02:17:12.534Z,57.76
2018-12-24T02:17:43.680Z,57.75
2018-12-24T02:18:14.990Z,57.86
2018-12-24T02:18:46.132Z,57.95
2018-12-24T02:19:17.279Z,57.88
2018-12-24T02:19:48.484Z,58.00
2018-12-24T02:20:19.631Z,58.11
2018-12-24T02:20:50.810Z,58.17
2018-12-24T02:21:22.105Z,58.19
2018-12-24T02:21:53.255Z,58.27
2018-12-24T02:22:24.406Z,58.31
2018-12-24T02:22:55.563Z,58.35
2018-12-24T02:23:26.720Z,58.68
2018-12-24T02:23:57.928Z,58.86
2018-12-24T02:24:29.092Z,59.32
2018-12-24T02:25:00.315Z,59.16
2018-12-24T02:25:31.527Z,59.32
2018-12-24T02:26:02.679Z,58.77
2018-12-24T02:26:33.869Z,58.57
2018-12-24T02:27:05.018Z,58.50
2018-12-24T02:27:36.173Z,58.47
2018-12-24T02:28:07.328Z,58.61
2018-12-24T02:28:38.483Z,58.64
2018-12-24T02:29:09.637Z,58.72
2018-12-24T02:29:40.803Z,58.76
2018-12-24T02:30:11.974Z,58.82
2018-12-24T02:30:43.127Z,58.88
2018-12-24T02:31:14.282Z,58.97
2018-12-24T02:31:45.480Z,59.46
2018-12-24T02:32:16.624Z,59.88
2018-12-24T02:32:47.786Z,59.93
2018-12-24T02:33:18.955Z,60.14
2018-12-24T02:33:50.102Z,60.21
2018-12-24T02:34:21.243Z,60.18
2018-12-24T02:34:52.400Z,60.21
2018-12-24T02:35:23.558Z,60.39
2018-12-24T02:35:54.706Z,60.31
2018-12-24T02:36:25.850Z,60.79
2018-12-24T02:36:57.058Z,61.10
2018-12-24T02:37:28.206Z,60.96
2018-12-24T02:37:59.357Z,60.82
2018-12-24T02:38:30.515Z,60.93
2018-12-24T02:39:01.798Z,60.65
2018-12-24T02:39:32.993Z,60.42
2018-12-24T02:40:04.142Z,60.34
2018-12-24T02:40:35.353Z,60.36
2018-12-24T02:41:06.504Z,60.32
2018-12-24T02:41:37.652Z,60.39
2018-12-24T02:42:08.856Z,60.58
2018-12-24T02:42:40.002Z,61.16
2018-12-24T02:43:11.144Z,60.62
2018-12-24T02:43:42.299Z,60.37
2018-12-24T02:44:13.456Z,60.38
2018-12-24T02:44:44.609Z,60.38
2018-12-24T02:45:15.818Z,60.45
2018-12-24T02:45:46.975Z,60.56
2018-12-24T02:46:18.128Z,60.72
2018-12-24T02:46:49.281Z,60.85
2018-12-24T02:47:20.488Z,60.98
2018-12-24T02:47:51.636Z,61.09
2018-12-24T02:48:22.784Z,61.25
2018-12-24T02:48:53.935Z,61.31
2018-12-24T02:49:25.089Z,61.44
2018-12-24T02:49:56.243Z,61.46
2018-12-24T02:50:27.397Z,61.24
2018-12-24T02:50:58.553Z,61.12
2018-12-24T02:51:29.713Z,61.39
2018-12-24T02:52:00.861Z,61.56
2018-12-24T02:52:32.059Z,61.55
2018-12-24T02:53:03.204Z,61.59
2018-12-24T02:53:34.372Z,61.69
2018-12-24T02:54:05.508Z,61.64
2018-12-24T02:54:36.648Z,61.59
2018-12-24T02:55:07.796Z,61.59
2018-12-24T02:55:38.987Z,61.64
2018-12-24T02:56:10.138Z,61.71
2018-12-24T02:56:41.286Z,61.71
2018-12-24T02:57:12.436Z,61.72
2018-12-24T02:57:44.859Z,61.75
2018-12-24T02:58:15.934Z,61.82
2018-12-24T02:58:47.097Z,61.90
2018-12-24T02:59:18.245Z,62.04
2018-12-24T02:59:49.457Z,62.06
2018-12-24T03:00:20.600Z,62.10
2018-12-24T03:00:51.743Z,62.11
2018-12-24T03:01:22.914Z,62.14
2018-12-24T03:01:54.057Z,62.23
2018-12-24T03:02:25.207Z,62.34
2018-12-24T03:02:56.365Z,62.43
2018-12-24T03:03:27.513Z,62.48
2018-12-24T03:03:58.706Z,62.65
2018-12-24T03:04:29.872Z,62.72
2018-12-24T03:05:01.026Z,62.85
2018-12-24T03:05:32.186Z,62.76
2018-12-24T03:06:03.323Z,62.73
2018-12-24T03:06:34.493Z,62.96
2018-12-24T03:07:05.702Z,62.80
2018-12-24T03:07:36.847Z,62.71
2018-12-24T03:08:08.001Z,62.81
2018-12-24T03:08:39.150Z,62.75
2018-12-24T03:09:10.300Z,62.69
2018-12-24T03:09:41.453Z,62.54
2018-12-24T03:10:12.610Z,62.61
2018-12-24T03:10:43.829Z,62.57
2018-12-24T03:11:14.977Z,62.39
2018-12-24T03:11:46.122Z,62.48
2018-12-24T03:12:17.319Z,62.51
2018-12-24T03:12:48.474Z,62.47
2018-12-24T03:13:19.619Z,62.51
2018-12-24T03:13:50.803Z,62.54
2018-12-24T03:14:21.947Z,62.38
2018-12-24T03:14:53.085Z,62.26
2018-12-24T03:15:24.239Z,62.30
2018-12-24T03:15:55.408Z,62.36
2018-12-24T03:16:26.553Z,62.34
2018-12-24T03:16:57.709Z,62.16
2018-12-24T03:17:28.904Z,62.06
2018-12-24T03:18:00.059Z,61.96
2018-12-24T03:18:31.201Z,61.88
2018-12-24T03:19:02.361Z,61.80
2018-12-24T03:19:33.503Z,61.87
2018-12-24T03:20:04.655Z,62.02
2018-12-24T03:20:35.805Z,62.20
2018-12-24T03:21:06.964Z,61.98
2018-12-24T03:21:38.163Z,62.04
2018-12-24T03:22:09.316Z,61.43
2018-12-24T03:22:40.489Z,61.37
2018-12-24T03:23:11.615Z,61.21
2018-12-24T03:23:42.787Z,61.23
2018-12-24T03:24:13.934Z,61.25
2018-12-24T03:24:45.075Z,61.22
2018-12-24T03:25:16.279Z,61.14
2018-12-24T03:25:47.433Z,61.25
2018-12-24T03:26:18.573Z,61.06
2018-12-24T03:26:49.725Z,61.05
2018-12-24T03:27:20.881Z,61.18
2018-12-24T03:27:52.026Z,61.12
2018-12-24T03:28:23.182Z,60.96
2018-12-24T03:28:54.371Z,60.79
2018-12-24T03:29:25.532Z,60.68
2018-12-24T03:29:56.688Z,60.69
2018-12-24T03:30:27.844Z,60.71
2018-12-24T03:31:00.783Z,60.76
2018-12-24T03:31:35.019Z,60.89
2018-12-24T03:32:06.174Z,60.75
2018-12-24T03:32:37.338Z,60.67
2018-12-24T03:33:08.476Z,60.54
2018-12-24T03:33:39.627Z,60.55
2018-12-24T03:34:10.823Z,60.32
2018-12-24T03:34:41.963Z,60.01
2018-12-24T03:35:13.105Z,60.05
2018-12-24T03:35:44.270Z,59.77
2018-12-24T03:36:15.403Z,59.75
2018-12-24T03:36:46.546Z,59.68
2018-12-24T03:37:17.700Z,59.73
2018-12-24T03:37:48.895Z,59.65
2018-12-24T03:38:20.063Z,59.72
2018-12-24T03:38:51.217Z,59.77
2018-12-24T03:39:22.348Z,59.88
2018-12-24T03:39:53.531Z,59.69
2018-12-24T03:40:24.750Z,59.51
2018-12-24T03:40:55.895Z,59.38
2018-12-24T03:41:27.054Z,59.00
2018-12-24T03:41:58.193Z,58.87
2018-12-24T03:42:29.462Z,58.98
2018-12-24T03:43:00.710Z,59.01
2018-12-24T03:43:31.851Z,59.12
2018-12-24T03:44:03.059Z,58.97
2018-12-24T03:44:34.251Z,59.03
2018-12-24T03:45:05.412Z,59.14
2018-12-24T03:45:36.565Z,58.96
2018-12-24T03:46:07.714Z,58.97
2018-12-24T03:46:38.866Z,59.18
2018-12-24T03:47:10.161Z,59.19
2018-12-24T03:47:41.313Z,58.78
2018-12-24T03:48:12.487Z,58.65
2018-12-24T03:48:43.695Z,58.79
2018-12-24T03:49:14.853Z,59.29
2018-12-24T03:49:46.001Z,59.12
2018-12-24T03:50:17.157Z,58.86
2018-12-24T03:50:48.307Z,58.58
2018-12-24T03:51:19.469Z,58.91
2018-12-24T03:51:50.632Z,59.36
2018-12-24T03:52:21.820Z,59.58
2018-12-24T03:52:53.027Z,59.98
2018-12-24T03:53:24.186Z,59.87
2018-12-24T03:53:55.389Z,59.63
2018-12-24T03:54:26.537Z,60.64
2018-12-24T03:54:57.686Z,60.91
2018-12-24T03:55:28.835Z,61.01
2018-12-24T03:55:59.987Z,61.36
2018-12-24T03:56:31.132Z,61.36
2018-12-24T03:57:02.277Z,61.58
2018-12-24T03:57:33.420Z,61.78
2018-12-24T03:58:04.573Z,62.03
2018-12-24T03:58:35.728Z,62.17
2018-12-24T03:59:06.936Z,62.45
2018-12-24T03:59:39.400Z,62.68
2018-12-24T04:00:10.496Z,62.91
2018-12-24T04:00:41.656Z,63.49
2018-12-24T04:01:12.799Z,63.86
2018-12-24T04:01:43.952Z,64.04
2018-12-24T04:02:15.097Z,64.22
2018-12-24T04:02:46.239Z,64.28
2018-12-24T04:03:17.389Z,64.38
2018-12-24T04:03:48.540Z,64.49
2018-12-24T04:04:19.730Z,64.58
2018-12-24T04:04:50.874Z,64.81
2018-12-24T04:05:22.177Z,64.80
2018-12-24T04:05:53.259Z,64.30
2018-12-24T04:06:24.402Z,64.87
2018-12-24T04:06:55.563Z,65.13
2018-12-24T04:07:26.712Z,65.40
2018-12-24T04:07:58.030Z,65.67
2018-12-24T04:08:29.194Z,66.03
2018-12-24T04:09:00.341Z,66.24
2018-12-24T04:09:31.549Z,66.47
2018-12-24T04:10:02.695Z,66.64
2018-12-24T04:10:33.828Z,66.71
2018-12-24T04:11:04.974Z,66.80
2018-12-24T04:11:36.136Z,67.45
2018-12-24T04:12:07.287Z,67.10
2018-12-24T04:12:38.430Z,66.84
2018-12-24T04:13:09.589Z,66.87
2018-12-24T04:13:40.740Z,66.74
2018-12-24T04:14:11.948Z,66.32
2018-12-24T04:14:43.104Z,66.24
2018-12-24T04:15:14.280Z,66.23
2018-12-24T04:15:45.593Z,65.84
2018-12-24T04:16:16.692Z,65.67
2018-12-24T04:16:47.850Z,65.62
2018-12-24T04:17:19.003Z,65.68
2018-12-24T04:17:50.200Z,65.84
2018-12-24T04:18:21.362Z,66.37
2018-12-24T04:18:52.554Z,66.12
2018-12-24T04:19:23.703Z,66.18
2018-12-24T04:19:54.899Z,66.24
2018-12-24T04:20:26.055Z,66.28
2018-12-24T04:20:57.217Z,66.22
2018-12-24T04:21:28.373Z,66.28
2018-12-24T04:22:02.288Z,66.26
2018-12-24T04:22:33.445Z,66.36
2018-12-24T04:23:04.600Z,66.38
2018-12-24T04:23:35.756Z,66.42
2018-12-24T04:24:06.903Z,66.57
2018-12-24T04:24:38.092Z,66.60
2018-12-24T04:25:09.267Z,66.67
2018-12-24T04:25:40.399Z,66.80
2018-12-24T04:26:11.559Z,67.01
2018-12-24T04:26:42.715Z,67.30
2018-12-24T04:27:13.874Z,67.47
2018-12-24T04:27:45.099Z,67.68
2018-12-24T04:28:16.293Z,68.00
2018-12-24T04:28:47.443Z,68.02
2018-12-24T04:29:18.596Z,68.52
2018-12-24T04:29:49.761Z,68.48
2018-12-24T04:30:20.917Z,68.48
2018-12-24T04:30:52.057Z,68.48
2018-12-24T04:31:23.213Z,68.45
2018-12-24T04:31:54.368Z,68.53
2018-12-24T04:32:25.510Z,68.65
2018-12-24T04:32:56.655Z,68.60
2018-12-24T04:33:27.852Z,68.84
2018-12-24T04:33:59.023Z,68.95
2018-12-24T04:34:30.174Z,68.93
2018-12-24T04:35:01.334Z,68.95
2018-12-24T04:35:32.485Z,69.08
2018-12-24T04:36:03.637Z,69.03
2018-12-24T04:36:34.788Z,69.01
2018-12-24T04:37:05.936Z,69.01
2018-12-24T04:37:37.091Z,69.02
2018-12-24T04:38:08.239Z,69.03
2018-12-24T04:38:39.429Z,68.96
2018-12-24T04:39:10.584Z,69.13
2018-12-24T04:39:41.731Z,69.15
2018-12-24T04:40:12.889Z,69.15
2018-12-24T04:40:44.053Z,69.12
2018-12-24T04:41:15.221Z,69.08
2018-12-24T04:41:46.384Z,69.05
2018-12-24T04:42:17.584Z,69.11
2018-12-24T04:42:48.739Z,69.13
2018-12-24T04:43:19.890Z,69.41
2018-12-24T04:43:51.037Z,69.60
2018-12-24T04:44:22.183Z,69.71
2018-12-24T04:44:53.339Z,69.85
2018-12-24T04:45:24.487Z,69.89
2018-12-24T04:45:55.631Z,70.08
2018-12-24T04:46:26.774Z,70.22
2018-12-24T04:46:57.931Z,70.35
2018-12-24T04:47:29.124Z,70.59
2018-12-24T04:48:00.275Z,70.62
2018-12-24T04:48:31.436Z,70.80
2018-12-24T04:49:02.577Z,70.93
2018-12-24T04:49:33.729Z,71.12
2018-12-24T04:50:04.933Z,71.29
2018-12-24T04:50:36.074Z,71.53
2018-12-24T04:51:07.232Z,71.55
2018-12-24T04:51:38.385Z,71.71
2018-12-24T04:52:09.539Z,71.74
2018-12-24T04:52:40.698Z,71.76
2018-12-24T04:53:11.855Z,71.71
2018-12-24T04:53:43.010Z,71.65
2018-12-24T04:54:14.160Z,71.63
2018-12-24T04:54:45.400Z,71.46
2018-12-24T04:55:18.031Z,71.31
2018-12-24T04:55:49.178Z,71.34
2018-12-24T04:56:20.323Z,71.44
2018-12-24T04:56:51.481Z,71.54
2018-12-24T04:57:22.676Z,71.71
2018-12-24T04:57:53.823Z,71.93
2018-12-24T04:58:24.994Z,72.15
2018-12-24T04:58:56.154Z,72.25
2018-12-24T04:59:27.310Z,72.35
2018-12-24T04:59:58.460Z,72.47
2018-12-24T05:00:29.603Z,72.58
2018-12-24T05:01:00.810Z,72.64
2018-12-24T05:01:31.961Z,72.76
2018-12-24T05:02:03.118Z,72.99
2018-12-24T05:02:34.268Z,73.22
2018-12-24T05:03:05.417Z,73.53
2018-12-24T05:03:36.571Z,73.76
2018-12-24T05:04:07.717Z,74.01
2018-12-24T05:04:38.884Z,74.16
2018-12-24T05:05:10.038Z,74.30
2018-12-24T05:05:41.183Z,74.33
2018-12-24T05:06:12.361Z,74.34
2018-12-24T05:06:43.557Z,74.35
2018-12-24T05:07:14.711Z,74.29
2018-12-24T05:07:45.865Z,74.22
2018-12-24T05:08:17.008Z,74.22
2018-12-24T05:08:48.161Z,74.22
2018-12-24T05:09:19.319Z,74.27
2018-12-24T05:09:50.460Z,74.38
2018-12-24T05:10:21.684Z,74.42
2018-12-24T05:10:52.875Z,74.49
2018-12-24T05:11:24.047Z,74.47
2018-12-24T05:11:55.241Z,74.50
2018-12-24T05:12:26.393Z,74.56
2018-12-24T05:12:57.561Z,74.52
2018-12-24T05:13:28.710Z,74.53
2018-12-24T05:13:59.849Z,74.61
2018-12-24T05:14:31.004Z,74.72
2018-12-24T05:15:02.157Z,74.81
2018-12-24T05:15:33.315Z,74.80
2018-12-24T05:16:04.462Z,74.82
2018-12-24T05:16:35.613Z,74.78
2018-12-24T05:17:06.792Z,74.70
2018-12-24T05:17:37.952Z,74.65
2018-12-24T05:18:09.104Z,74.55
2018-12-24T05:18:40.260Z,74.48
2018-12-24T05:19:11.536Z,74.45
2018-12-24T05:19:42.694Z,74.43
2018-12-24T05:20:13.853Z,74.37
2018-12-24T05:20:45.001Z,74.42
2018-12-24T05:21:16.192Z,74.62
2018-12-24T05:21:47.345Z,74.83
2018-12-24T05:22:18.501Z,75.02
2018-12-24T05:22:49.660Z,75.19
2018-12-24T05:23:20.848Z,75.34
2018-12-24T05:23:51.996Z,75.54
2018-12-24T05:24:23.197Z,75.53
2018-12-24T05:24:54.356Z,75.53
2018-12-24T05:25:25.500Z,75.74
2018-12-24T05:25:56.645Z,75.71
2018-12-24T05:26:27.787Z,75.64
2018-12-24T05:26:58.988Z,75.55
2018-12-24T05:27:30.127Z,75.65
2018-12-24T05:28:01.276Z,75.75
2018-12-24T05:28:32.423Z,75.92
2018-12-24T05:29:03.581Z,75.94
2018-12-24T05:29:34.786Z,76.09
2018-12-24T05:30:05.925Z,76.15
2018-12-24T05:30:37.080Z,76.26
2018-12-24T05:31:08.230Z,76.25
2018-12-24T05:31:39.378Z,76.26
2018-12-24T05:32:10.537Z,76.38
2018-12-24T05:32:41.680Z,76.48
2018-12-24T05:33:12.843Z,76.52
2018-12-24T05:33:44.061Z,76.48
2018-12-24T05:34:15.172Z,76.40
2018-12-24T05:34:46.321Z,76.44
2018-12-24T05:35:17.470Z,76.51
2018-12-24T05:35:48.679Z,76.43
2018-12-24T05:36:19.823Z,76.34
2018-12-24T05:36:51.021Z,76.32
2018-12-24T05:37:22.168Z,76.23
2018-12-24T05:37:53.315Z,76.23
2018-12-24T05:38:24.454Z,76.25
2018-12-24T05:38:55.597Z,76.32
2018-12-24T05:39:26.744Z,76.36
2018-12-24T05:39:57.895Z,76.40
2018-12-24T05:40:29.050Z,76.42
2018-12-24T05:41:00.206Z,76.54
2018-12-24T05:41:31.358Z,76.64
2018-12-24T05:42:02.563Z,76.65
2018-12-24T05:42:33.705Z,76.63
2018-12-24T05:43:04.852Z,76.63
2018-12-24T05:43:36.029Z,76.66
2018-12-24T05:44:07.190Z,76.55
2018-12-24T05:44:38.343Z,76.45
2018-12-24T05:45:09.493Z,76.40
2018-12-24T05:45:40.640Z,76.40
2018-12-24T05:46:11.787Z,76.52
2018-12-24T05:46:42.942Z,76.59
2018-12-24T05:47:14.133Z,76.65
2018-12-24T05:47:45.304Z,76.73
2018-12-24T05:48:16.456Z,76.91
2018-12-24T05:48:47.618Z,77.07
2018-12-24T05:49:18.751Z,77.63
2018-12-24T05:49:49.934Z,77.85
2018-12-24T05:50:21.091Z,77.71
2018-12-24T05:50:52.254Z,77.62
2018-12-24T05:51:25.164Z,77.49
2018-12-24T05:51:56.366Z,77.47
2018-12-24T05:52:27.517Z,77.47
2018-12-24T05:52:58.657Z,77.45
2018-12-24T05:53:29.806Z,77.38
2018-12-24T05:54:00.960Z,77.30
2018-12-24T05:54:32.105Z,77.34
2018-12-24T05:55:03.246Z,77.52
2018-12-24T05:55:34.396Z,77.65
2018-12-24T05:56:05.544Z,77.94
2018-12-24T05:56:36.744Z,78.25
2018-12-24T05:57:07.894Z,78.69
2018-12-24T05:57:39.055Z,79.08
2018-12-24T05:58:10.207Z,79.32
2018-12-24T05:58:41.365Z,79.32
2018-12-24T05:59:12.558Z,79.27
2018-12-24T05:59:43.709Z,79.14
2018-12-24T06:00:14.864Z,79.08
2018-12-24T06:00:46.066Z,79.03
2018-12-24T06:01:17.222Z,78.91
2018-12-24T06:01:48.370Z,78.82
2018-12-24T06:02:19.527Z,78.82
2018-12-24T06:02:50.671Z,78.83
2018-12-24T06:03:21.821Z,78.84
2018-12-24T06:03:52.971Z,79.10
2018-12-24T06:04:24.177Z,79.12
2018-12-24T06:04:55.333Z,79.10
2018-12-24T06:05:26.492Z,79.09
2018-12-24T06:05:57.643Z,79.04
2018-12-24T06:06:28.803Z,79.09
2018-12-24T06:06:59.954Z,79.04
2018-12-24T06:07:31.100Z,79.46
2018-12-24T06:08:02.251Z,79.31
2018-12-24T06:08:33.452Z,78.96
2018-12-24T06:09:04.599Z,78.84
2018-12-24T06:09:35.756Z,78.71
2018-12-24T06:10:06.912Z,78.64
2018-12-24T06:10:38.067Z,78.59
2018-12-24T06:11:09.223Z,78.63
2018-12-24T06:11:40.365Z,78.54
2018-12-24T06:12:11.518Z,78.08
2018-12-24T06:12:42.754Z,77.92
2018-12-24T06:13:13.924Z,77.80
2018-12-24T06:13:45.128Z,77.49
2018-12-24T06:14:16.285Z,77.31
2018-12-24T06:14:47.427Z,77.09
2018-12-24T06:15:18.593Z,77.00
2018-12-24T06:15:49.740Z,76.87
2018-12-24T06:16:20.889Z,76.81
2018-12-24T06:16:52.043Z,76.77
2018-12-24T06:17:23.218Z,76.63
2018-12-24T06:17:54.374Z,76.46
2018-12-24T06:18:25.526Z,76.28
2018-12-24T06:18:56.709Z,75.86
2018-12-24T06:19:27.863Z,75.71
2018-12-24T06:19:59.004Z,75.58
2018-12-24T06:20:37.531Z,75.53
2018-12-24T06:21:03.021Z,75.45
2018-12-24T06:21:34.182Z,75.44
2018-12-24T06:22:05.332Z,75.39
2018-12-24T06:22:39.074Z,75.31
2018-12-24T06:23:10.230Z,75.21
2018-12-24T06:23:41.422Z,75.22
2018-12-24T06:24:12.617Z,75.21
2018-12-24T06:24:43.781Z,75.32
2018-12-24T06:25:14.939Z,75.04
2018-12-24T06:25:46.110Z,74.81
2018-12-24T06:26:17.271Z,74.60
2018-12-24T06:26:48.424Z,74.53
2018-12-24T06:27:19.582Z,74.42
2018-12-24T06:27:50.736Z,74.33
2018-12-24T06:28:21.922Z,74.34
2018-12-24T06:28:54.415Z,74.28
2018-12-24T06:29:26.786Z,74.23
2018-12-24T06:29:57.945Z,74.18
2018-12-24T06:30:29.144Z,74.19
2018-12-24T06:31:00.305Z,74.24
2018-12-24T06:31:31.782Z,74.20
2018-12-24T06:32:02.959Z,74.11
2018-12-24T06:32:34.116Z,73.90
2018-12-24T06:33:05.278Z,73.68
2018-12-24T06:33:36.493Z,74.26
2018-12-24T06:34:07.679Z,74.44
2018-12-24T06:34:38.806Z,74.36
2018-12-24T06:35:09.987Z,74.01
2018-12-24T06:35:41.138Z,73.16
2018-12-24T06:36:12.337Z,72.51
2018-12-24T06:36:43.512Z,72.16
2018-12-24T06:37:14.741Z,71.76
2018-12-24T06:37:45.906Z,71.73
2018-12-24T06:38:17.055Z,71.78
2018-12-24T06:38:48.207Z,71.76
2018-12-24T06:39:19.366Z,71.27
2018-12-24T06:39:50.570Z,71.07
2018-12-24T06:40:21.722Z,71.23
2018-12-24T06:40:52.877Z,71.45
2018-12-24T06:41:24.029Z,71.30
2018-12-24T06:41:55.180Z,71.05
2018-12-24T06:42:26.342Z,71.08